CheckWX is a tool to help pilots better visualize weather data.  It is not intended as a substitute for an official pre-flight weather briefing.

03:36:03 UTC

ENHV METAR
Valan Airport
Honningsvåg, Norway
Current

8 hours ago

ENHV 181950Z 03008KT CAVOK 05/01 Q1009
Observed
Jun-18 @ 19:50 UTC
Wind
  • 030° at 8 KTS
Visibility
10,000+ meters
Flight Rules
VFR
Cloud Levels
  • Clear skies
Temperature
C / 41°F
Dewpoint
C / 34°F
Humidity
76%
Altimeter
29.79" Hg
Pressure
1008.92 hPa
Previous

10 hours ago

ENHV 181750Z 03010KT CAVOK 05/01 Q1009
Observed
Jun-18 @ 17:50 UTC
Wind
  • 030° at 10 KTS
Visibility
10,000+ meters
Flight Rules
VFR
Cloud Levels
  • Clear skies
Temperature
C / 41°F
Dewpoint
C / 34°F
Humidity
76%
Altimeter
29.79" Hg
Pressure
1008.92 hPa
Previous

12 hours ago

ENHV 181550Z 03010KT 9999 SCT023 05/01 Q1010
Observed
Jun-18 @ 15:50 UTC
Wind
  • 030° at 10 KTS
Visibility
10,000+ meters
Flight Rules
VFR
Cloud Levels
  • Scattered at 2,300' AGL
Temperature
C / 41°F
Dewpoint
C / 34°F
Humidity
76%
Altimeter
29.82" Hg
Pressure
1009.92 hPa